createdAt,value
2023-01-15T00:02:49.368Z,-67
2023-01-15T00:07:52.160Z,-68
2023-01-15T00:12:54.073Z,-68
2023-01-15T00:17:55.829Z,-67
2023-01-15T00:22:57.608Z,-67
2023-01-15T00:28:01.654Z,-67
2023-01-15T00:33:03.725Z,-67
2023-01-15T00:38:05.548Z,-67
2023-01-15T00:43:07.390Z,-67
2023-01-15T00:48:09.343Z,-67
2023-01-15T00:53:11.090Z,-67
2023-01-15T00:58:13.104Z,-67
2023-01-15T01:03:15.088Z,-67
2023-01-15T01:08:17.588Z,-68
2023-01-15T01:13:19.503Z,-68
2023-01-15T01:18:21.239Z,-69
2023-01-15T01:23:23.902Z,-71
2023-01-15T01:28:25.652Z,-66
2023-01-15T01:33:27.511Z,-67
2023-01-15T01:38:30.974Z,-67
2023-01-15T01:43:51.373Z,-69
2023-01-15T01:48:55.981Z,-69
2023-01-15T01:54:00.176Z,-70
2023-01-15T01:59:02.732Z,-70
2023-01-15T02:04:07.111Z,-69
2023-01-15T02:09:08.936Z,-70
2023-01-15T02:14:24.160Z,-70
2023-01-15T02:19:42.054Z,-69
2023-01-15T02:24:43.820Z,-70
2023-01-15T02:29:49.089Z,-69
2023-01-15T02:34:59.724Z,-70
2023-01-15T02:40:05.409Z,-69
2023-01-15T02:45:09.225Z,-65
2023-01-15T02:50:13.677Z,-68
2023-01-15T02:55:24.429Z,-67
2023-01-15T03:00:30.088Z,-67
2023-01-15T03:05:36.269Z,-68
2023-01-15T03:10:50.436Z,-67
2023-01-15T03:16:14.449Z,-66
2023-01-15T03:21:19.713Z,-67
2023-01-15T03:26:21.646Z,-68
2023-01-15T03:31:23.501Z,-67
2023-01-15T03:36:25.354Z,-67
2023-01-15T03:41:38.034Z,-66
2023-01-15T03:46:46.149Z,-68
2023-01-15T03:51:55.654Z,-68
2023-01-15T03:57:06.523Z,-67
2023-01-15T04:02:09.579Z,-68
2023-01-15T04:07:12.587Z,-64
2023-01-15T04:12:15.307Z,-67
2023-01-15T04:17:21.710Z,-68
2023-01-15T04:22:23.544Z,-68
2023-01-15T04:27:27.268Z,-67
2023-01-15T04:32:29.012Z,-69
2023-01-15T04:37:30.868Z,-70
2023-01-15T04:42:51.289Z,-70
2023-01-15T04:47:53.058Z,-70
2023-01-15T04:52:54.783Z,-70
2023-01-15T04:57:56.926Z,-70
2023-01-15T05:02:58.829Z,-70
2023-01-15T05:08:00.642Z,-70
2023-01-15T05:13:02.397Z,-70
2023-01-15T05:18:04.758Z,-69
2023-01-15T05:23:06.515Z,-69
2023-01-15T05:28:08.282Z,-68
2023-01-15T05:33:10.040Z,-68
2023-01-15T05:38:11.830Z,-67
2023-01-15T05:43:13.606Z,-67
2023-01-15T05:48:15.513Z,-69
2023-01-15T05:53:17.299Z,-68
2023-01-15T05:58:19.060Z,-67
2023-01-15T06:03:24.539Z,-67
2023-01-15T06:08:26.309Z,-66
2023-01-15T06:13:28.064Z,-67
2023-01-15T06:18:29.937Z,-67
2023-01-15T06:23:32.226Z,-67
2023-01-15T06:28:34.585Z,-67
2023-01-15T06:33:36.442Z,-64
2023-01-15T06:38:38.507Z,-65
2023-01-15T06:43:58.882Z,-65
2023-01-15T06:49:00.664Z,-65
2023-01-15T06:54:02.438Z,-65
2023-01-15T06:59:04.247Z,-65
2023-01-15T07:04:06.056Z,-66
2023-01-15T07:09:08.150Z,-66
2023-01-15T07:14:09.905Z,-68
2023-01-15T07:19:11.878Z,-63
2023-01-15T07:24:14.025Z,-67
2023-01-15T07:29:16.014Z,-68
2023-01-15T07:34:17.810Z,-67
2023-01-15T07:39:19.719Z,-67
2023-01-15T07:44:40.279Z,-67
2023-01-15T07:49:51.221Z,-69
2023-01-15T07:54:53.312Z,-69
2023-01-15T07:59:55.303Z,-69
2023-01-15T08:04:57.069Z,-71
2023-01-15T08:09:58.875Z,-70
2023-01-15T08:15:16.773Z,-71
2023-01-15T08:20:20.173Z,-71
2023-01-15T08:25:23.446Z,-67
2023-01-15T08:30:25.647Z,-63
2023-01-15T08:35:27.479Z,-66
2023-01-15T08:40:29.535Z,-64
2023-01-15T08:45:31.404Z,-66
2023-01-15T08:50:33.332Z,-66
2023-01-15T08:55:37.382Z,-67
2023-01-15T09:00:39.178Z,-68
2023-01-15T09:05:41.446Z,-67
2023-01-15T09:10:43.250Z,-69
2023-01-15T09:15:45.084Z,-69
2023-01-15T09:20:47.332Z,-66
2023-01-15T09:26:00.169Z,-66
2023-01-15T09:31:01.996Z,-67
2023-01-15T09:36:03.974Z,-65
2023-01-15T09:41:30.420Z,-65
2023-01-15T09:46:52.702Z,-66
2023-01-15T09:52:03.665Z,-66
2023-01-15T09:57:10.303Z,-67
2023-01-15T10:02:17.634Z,-68
2023-01-15T10:07:33.354Z,-66
2023-01-15T10:12:36.206Z,-67
2023-01-15T10:17:42.620Z,-67
2023-01-15T10:22:50.561Z,-67
2023-01-15T10:27:52.608Z,-68
2023-01-15T10:33:03.103Z,-66
2023-01-15T10:38:15.980Z,-66
2023-01-15T10:43:28.213Z,-66
2023-01-15T10:48:33.737Z,-67
2023-01-15T10:53:44.732Z,-69
2023-01-15T10:58:54.757Z,-69
2023-01-15T11:03:56.519Z,-68
2023-01-15T11:09:09.738Z,-67
2023-01-15T11:14:31.325Z,-68
2023-01-15T11:19:43.996Z,-67
2023-01-15T11:24:51.080Z,-67
2023-01-15T11:29:54.149Z,-66
2023-01-15T11:34:57.131Z,-66
2023-01-15T11:40:07.943Z,-68
2023-01-15T12:29:11.069Z,-61
2023-01-15T12:34:26.467Z,-60
2023-01-15T12:39:51.324Z,-61
2023-01-15T12:45:00.936Z,-61
2023-01-15T12:50:15.695Z,-62
2023-01-15T12:55:26.786Z,-68
2023-01-15T13:00:38.001Z,-63
2023-01-15T13:05:47.856Z,-60
2023-01-15T13:10:50.884Z,-58
2023-01-15T13:15:58.685Z,-60
2023-01-15T13:21:13.325Z,-59
2023-01-15T13:26:57.678Z,-60
2023-01-15T13:32:18.312Z,-61
2023-01-15T13:37:29.960Z,-59
2023-01-15T13:42:32.302Z,-60
2023-01-15T13:47:37.473Z,-58
2023-01-15T13:52:39.093Z,-60
2023-01-15T13:57:42.796Z,-60
2023-01-15T14:02:59.467Z,-64
2023-01-15T14:08:03.270Z,-60
2023-01-15T14:13:19.892Z,-60
2023-01-15T14:18:46.398Z,-58
2023-01-15T14:24:23.545Z,-59
2023-01-15T14:29:51.008Z,-60
2023-01-15T14:34:58.581Z,-58
2023-01-15T14:40:05.129Z,-59
2023-01-15T14:45:10.749Z,-61
2023-01-15T14:50:38.814Z,-60
2023-01-15T14:56:06.442Z,-62
2023-01-15T15:01:14.816Z,-62
2023-01-15T15:06:17.668Z,-62
2023-01-15T15:11:44.126Z,-62
2023-01-15T15:16:50.749Z,-62
2023-01-15T15:21:53.403Z,-62
2023-01-15T15:26:55.194Z,-62
2023-01-15T15:32:00.111Z,-62
2023-01-15T15:37:05.275Z,-61
2023-01-15T15:42:34.857Z,-61
2023-01-15T15:48:11.345Z,-62
2023-01-15T15:53:17.831Z,-63
2023-01-15T15:58:33.276Z,-63
2023-01-15T16:03:34.816Z,-62
2023-01-15T16:08:36.342Z,-59
2023-01-15T16:13:45.466Z,-58
2023-01-15T16:18:53.608Z,-59
2023-01-15T16:24:00.096Z,-61
2023-01-15T16:29:05.232Z,-59
2023-01-15T16:34:07.343Z,-63
2023-01-15T16:39:21.151Z,-59
2023-01-15T16:44:50.683Z,-63
2023-01-15T16:49:52.883Z,-62
2023-01-15T16:54:56.767Z,-61
2023-01-15T17:00:07.901Z,-63
2023-01-15T17:05:23.584Z,-59
2023-01-15T17:10:28.224Z,-59
2023-01-15T17:15:37.380Z,-63
2023-01-15T17:20:39.096Z,-59
2023-01-15T17:25:40.645Z,-60
2023-01-15T17:30:42.188Z,-60
2023-01-15T17:35:45.870Z,-60
2023-01-15T17:40:47.602Z,-59
2023-01-15T17:45:49.096Z,-60
2023-01-15T17:50:50.582Z,-60
2023-01-15T17:56:10.954Z,-60
2023-01-15T18:01:38.127Z,-63
2023-01-15T18:06:46.034Z,-60
2023-01-15T18:11:47.635Z,-60
2023-01-15T18:16:49.232Z,-61
2023-01-15T18:21:50.782Z,-60
2023-01-15T18:26:52.787Z,-60
2023-01-15T18:31:54.485Z,-63
2023-01-15T18:36:56.094Z,-63
2023-01-15T18:41:57.605Z,-60
2023-01-15T18:47:01.740Z,-60
2023-01-15T18:52:22.212Z,-60
2023-01-15T18:57:24.513Z,-60
2023-01-15T19:02:26.063Z,-60
2023-01-15T19:07:27.721Z,-60
2023-01-15T19:12:29.216Z,-60
2023-01-15T19:17:49.639Z,-59
2023-01-15T19:23:00.033Z,-59
2023-01-15T19:28:01.964Z,-60
2023-01-15T19:33:03.891Z,-61
2023-01-15T19:38:10.609Z,-60
2023-01-15T19:43:31.045Z,-60
2023-01-15T19:48:52.561Z,-62
2023-01-15T19:53:54.142Z,-62
2023-01-15T19:58:55.645Z,-62
2023-01-15T20:03:57.203Z,-61
2023-01-15T20:08:58.705Z,-61
2023-01-15T20:14:00.164Z,-61
2023-01-15T20:19:01.681Z,-61
2023-01-15T20:24:03.447Z,-60
2023-01-15T20:29:04.990Z,-60
2023-01-15T20:34:06.461Z,-60
2023-01-15T20:39:08.032Z,-61
2023-01-15T20:44:29.958Z,-61
2023-01-15T20:49:32.647Z,-61
2023-01-15T20:54:34.957Z,-61
2023-01-15T20:59:36.412Z,-62
2023-01-15T21:04:38.224Z,-62
2023-01-15T21:09:39.899Z,-62
2023-01-15T21:14:41.783Z,-61
2023-01-15T21:19:43.464Z,-61
2023-01-15T21:24:46.691Z,-60
2023-01-15T21:29:48.431Z,-61
2023-01-15T21:34:50.157Z,-60
2023-01-15T21:39:51.643Z,-60
2023-01-15T21:44:53.113Z,-60
2023-01-15T21:49:54.670Z,-60
2023-01-15T21:54:56.249Z,-60
2023-01-15T21:59:58.325Z,-61
2023-01-15T22:04:59.947Z,-61
2023-01-15T22:10:01.763Z,-60
2023-01-15T22:15:03.633Z,-63
2023-01-15T22:20:08.126Z,-61
2023-01-15T22:25:13.384Z,-62
2023-01-15T22:30:16.618Z,-62
2023-01-15T22:35:18.179Z,-61
2023-01-15T22:40:19.676Z,-62
2023-01-15T22:45:22.917Z,-60
2023-01-15T22:50:24.449Z,-61
2023-01-15T22:55:25.919Z,-62
2023-01-15T23:00:31.066Z,-62
2023-01-15T23:05:40.107Z,-62
2023-01-15T23:10:44.517Z,-62
2023-01-15T23:15:46.107Z,-62
2023-01-15T23:20:47.763Z,-62
2023-01-15T23:25:50.151Z,-63
2023-01-15T23:30:51.694Z,-62
2023-01-15T23:35:54.073Z,-63
2023-01-15T23:40:55.568Z,-62
2023-01-15T23:46:16.972Z,-60
2023-01-15T23:51:18.592Z,-62
2023-01-15T23:56:20.078Z,-61
